createdAt,value
2019-05-23T00:00:08.238Z,28.77
2019-05-23T00:02:57.449Z,29.87
2019-05-23T00:05:53.067Z,30.40
2019-05-23T00:08:41.461Z,30.30
2019-05-23T00:11:39.803Z,31.70
2019-05-23T00:14:39.684Z,31.33
2019-05-23T00:17:13.795Z,31.57
2019-05-23T00:19:43.456Z,29.60
2019-05-23T00:22:13.294Z,31.67
2019-05-23T00:24:43.386Z,32.27
2019-05-23T00:27:14.743Z,30.57
2019-05-23T00:29:44.891Z,32.23
2019-05-23T00:32:32.812Z,34.10
2019-05-23T00:35:04.427Z,33.50
2019-05-23T00:37:34.314Z,33.27
2019-05-23T00:40:04.593Z,37.17
2019-05-23T00:42:34.493Z,36.00
2019-05-23T00:45:05.733Z,37.57
2019-05-23T00:47:35.272Z,34.87
2019-05-23T00:50:05.969Z,33.97
2019-05-23T00:52:36.772Z,35.97
2019-05-23T00:55:08.255Z,37.43
2019-05-23T00:57:39.613Z,37.87
2019-05-23T01:00:11.338Z,37.87
2019-05-23T01:02:40.926Z,36.17
2019-05-23T01:05:12.365Z,36.27
2019-05-23T01:07:43.172Z,34.73
2019-05-23T01:10:14.122Z,34.53
2019-05-23T01:12:44.278Z,34.53
2019-05-23T01:15:16.633Z,34.53
2019-05-23T01:17:47.803Z,35.47
2019-05-23T01:20:20.060Z,36.73
2019-05-23T01:22:51.081Z,38.50
2019-05-23T01:25:22.703Z,37.87
2019-05-23T01:27:53.024Z,39.20
2019-05-23T01:30:27.714Z,40.13
2019-05-23T01:32:59.595Z,40.43
2019-05-23T01:35:29.256Z,39.80
2019-05-23T01:38:01.966Z,41.07
2019-05-23T01:40:31.657Z,43.20
2019-05-23T01:43:02.245Z,43.10
2019-05-23T01:45:32.035Z,43.23
2019-05-23T01:48:01.688Z,42.40
2019-05-23T01:50:31.453Z,41.10
2019-05-23T01:53:01.215Z,40.53
2019-05-23T01:55:31.268Z,38.53
2019-05-23T01:58:01.119Z,37.97
2019-05-23T02:00:31.266Z,40.27
2019-05-23T02:03:00.898Z,39.47
2019-05-23T02:05:30.946Z,39.80
2019-05-23T02:08:00.907Z,43.33
2019-05-23T02:10:31.934Z,44.67
2019-05-23T02:13:01.718Z,44.70
2019-05-23T02:15:31.305Z,44.90
2019-05-23T02:18:02.167Z,43.27
2019-05-23T02:20:33.476Z,46.13
2019-05-23T02:23:05.163Z,45.20
2019-05-23T02:25:35.087Z,40.20
2019-05-23T02:28:06.634Z,44.57
2019-05-23T02:30:37.702Z,46.30
2019-05-23T02:33:07.495Z,46.10
2019-05-23T02:35:39.245Z,42.23
2019-05-23T02:38:25.314Z,41.70
2019-05-23T02:41:03.039Z,47.50
2019-05-23T02:43:33.676Z,42.10
2019-05-23T02:46:07.430Z,46.97
2019-05-23T02:48:41.605Z,45.00
2019-05-23T02:51:14.488Z,43.83
2019-05-23T02:53:45.096Z,42.43
2019-05-23T02:56:16.907Z,45.97
2019-05-23T02:59:03.480Z,45.37
2019-05-23T03:01:42.213Z,47.57
2019-05-23T03:04:15.465Z,46.30
2019-05-23T03:06:45.435Z,39.03
2019-05-23T03:09:19.181Z,45.80
2019-05-23T03:11:49.969Z,40.60
2019-05-23T03:14:19.591Z,41.80
2019-05-23T03:16:52.160Z,40.53
2019-05-23T03:19:27.808Z,40.47
2019-05-23T03:22:00.876Z,42.93
2019-05-23T03:24:32.048Z,43.27
2019-05-23T03:27:07.818Z,38.70
2019-05-23T03:29:37.372Z,42.07
2019-05-23T03:32:25.346Z,44.73
2019-05-23T03:35:04.410Z,39.60
2019-05-23T03:37:35.639Z,40.83
2019-05-23T03:40:07.376Z,44.60
2019-05-23T03:42:37.333Z,41.07
2019-05-23T03:45:09.819Z,41.80
2019-05-23T03:47:40.396Z,38.10
2019-05-23T03:50:10.424Z,37.83
2019-05-23T03:52:40.321Z,35.73
2019-05-23T03:55:10.849Z,35.03
2019-05-23T03:57:41.828Z,36.80
2019-05-23T04:00:14.240Z,35.57
2019-05-23T04:02:44.198Z,36.10
2019-05-23T04:05:15.053Z,32.90
2019-05-23T04:07:44.638Z,33.27
2019-05-23T04:10:14.911Z,33.73
2019-05-23T04:12:45.022Z,31.73
2019-05-23T04:15:15.122Z,30.70
2019-05-23T04:17:45.703Z,34.27
2019-05-23T04:20:17.028Z,30.67
2019-05-23T04:22:46.597Z,27.63
2019-05-23T04:25:16.166Z,28.87
2019-05-23T04:27:45.856Z,26.00
2019-05-23T04:30:16.429Z,27.27
2019-05-23T04:32:46.614Z,27.83
2019-05-23T04:35:16.139Z,25.10
2019-05-23T04:37:45.891Z,27.07
2019-05-23T04:40:15.576Z,25.63
2019-05-23T04:42:45.752Z,23.70
2019-05-23T04:45:16.288Z,23.53
2019-05-23T04:47:46.768Z,24.80
2019-05-23T04:50:17.026Z,24.07
2019-05-23T04:52:47.591Z,24.13
2019-05-23T04:55:19.042Z,25.53
2019-05-23T04:57:49.284Z,25.60
2019-05-23T05:00:20.629Z,24.57
2019-05-23T05:02:50.593Z,25.53
2019-05-23T05:05:22.991Z,26.57
2019-05-23T05:07:52.550Z,24.40
2019-05-23T05:10:22.802Z,23.67
2019-05-23T05:12:53.369Z,24.97
2019-05-23T05:15:24.021Z,25.50
2019-05-23T05:17:53.593Z,24.93
2019-05-23T05:20:23.610Z,23.73
2019-05-23T05:22:53.893Z,23.97
2019-05-23T05:25:23.479Z,22.37
2019-05-23T05:27:53.524Z,22.63
2019-05-23T05:30:23.633Z,22.47
2019-05-23T05:32:53.470Z,23.27
2019-05-23T05:35:22.975Z,24.10
2019-05-23T05:37:52.925Z,23.30
2019-05-23T05:40:22.488Z,22.30
2019-05-23T05:42:53.065Z,23.87
2019-05-23T05:45:24.045Z,23.00
2019-05-23T05:47:55.527Z,22.37
2019-05-23T05:50:26.061Z,22.50
2019-05-23T05:52:56.741Z,22.17
2019-05-23T05:55:26.473Z,20.00
2019-05-23T05:57:57.654Z,20.20
2019-05-23T06:00:38.562Z,20.12
2019-05-23T06:03:08.803Z,19.73
2019-05-23T06:05:56.816Z,22.87
2019-05-23T06:08:27.852Z,24.40
2019-05-23T06:10:57.836Z,21.90
2019-05-23T06:13:28.140Z,22.98
2019-05-23T06:15:58.707Z,23.45
2019-05-23T06:18:28.225Z,25.12
2019-05-23T06:20:59.183Z,24.57
2019-05-23T06:23:29.711Z,22.45
2019-05-23T06:25:59.277Z,25.10
2019-05-23T06:28:30.582Z,24.05
2019-05-23T06:31:01.202Z,25.52
2019-05-23T06:33:31.536Z,25.65
2019-05-23T06:36:02.002Z,29.48
2019-05-23T06:38:32.347Z,30.57
2019-05-23T06:41:04.021Z,29.52
2019-05-23T06:43:35.481Z,29.87
2019-05-23T06:46:05.796Z,29.37
2019-05-23T06:48:35.752Z,30.30
2019-05-23T06:51:05.467Z,33.30
2019-05-23T06:53:35.091Z,29.82
2019-05-23T06:56:05.170Z,29.40
2019-05-23T06:58:36.228Z,31.75
2019-05-23T07:01:05.806Z,32.25
2019-05-23T07:03:42.705Z,29.55
2019-05-23T07:06:08.011Z,29.42
2019-05-23T07:08:37.601Z,33.38
2019-05-23T07:11:07.261Z,31.10
2019-05-23T07:13:38.498Z,31.97
2019-05-23T07:16:08.159Z,34.25
2019-05-23T07:18:38.312Z,29.72
2019-05-23T07:21:09.078Z,29.72
2019-05-23T07:23:39.108Z,29.40
2019-05-23T07:26:08.923Z,28.98
2019-05-23T07:28:38.734Z,28.47
2019-05-23T07:31:09.295Z,28.95
2019-05-23T07:33:39.496Z,27.93
2019-05-23T07:36:09.325Z,28.67
2019-05-23T07:38:40.737Z,27.40
2019-05-23T07:41:10.729Z,28.75
2019-05-23T07:43:40.594Z,28.98
2019-05-23T07:46:10.158Z,28.83
2019-05-23T07:48:40.147Z,28.90
2019-05-23T07:51:10.779Z,25.97
2019-05-23T07:53:58.582Z,30.45
2019-05-23T07:56:30.891Z,34.45
2019-05-23T07:59:00.600Z,31.42
2019-05-23T08:01:32.750Z,27.98
2019-05-23T08:04:19.586Z,27.75
2019-05-23T08:06:33.850Z,27.87
2019-05-23T08:09:04.307Z,29.30
2019-05-23T08:11:33.966Z,28.47
2019-05-23T08:14:04.077Z,28.27
2019-05-23T08:16:34.337Z,26.33
2019-05-23T08:19:04.317Z,25.75
2019-05-23T08:21:34.408Z,26.57
2019-05-23T08:24:05.353Z,28.38
2019-05-23T08:26:36.897Z,24.85
2019-05-23T08:29:27.458Z,25.25
2019-05-23T08:31:38.601Z,22.62
2019-05-23T08:34:08.849Z,23.55
2019-05-23T08:36:38.787Z,23.70
2019-05-23T08:39:10.449Z,22.20
2019-05-23T08:41:40.958Z,24.18
2019-05-23T08:44:11.672Z,23.57
2019-05-23T08:46:42.139Z,20.75
2019-05-23T08:49:11.773Z,19.20
2019-05-23T08:51:41.573Z,20.37
2019-05-23T08:54:11.336Z,19.85
2019-05-23T08:56:40.958Z,24.02
2019-05-23T08:59:10.635Z,19.82
2019-05-23T09:01:40.594Z,21.42
2019-05-23T09:04:10.270Z,15.90
2019-05-23T09:06:39.989Z,17.02
2019-05-23T09:09:28.457Z,17.48
2019-05-23T09:11:42.040Z,16.37
2019-05-23T09:14:11.933Z,16.93
2019-05-23T09:16:41.611Z,14.65
2019-05-23T09:19:11.161Z,16.65
2019-05-23T09:21:41.002Z,12.90
2019-05-23T09:24:11.408Z,15.28
2019-05-23T09:26:41.463Z,17.87
2019-05-23T09:29:11.270Z,13.60
2019-05-23T09:31:41.140Z,13.75
2019-05-23T09:34:11.012Z,12.23
2019-05-23T09:36:40.603Z,14.68
2019-05-23T09:39:12.163Z,12.55
2019-05-23T09:41:42.223Z,17.50
2019-05-23T09:44:12.891Z,13.30
2019-05-23T09:46:42.495Z,12.47
2019-05-23T09:49:12.183Z,12.35
2019-05-23T09:51:41.852Z,11.22
2019-05-23T09:54:11.675Z,15.08
2019-05-23T09:56:43.050Z,12.15
2019-05-23T09:59:13.756Z,10.95
2019-05-23T10:01:43.974Z,14.65
2019-05-23T10:04:13.560Z,12.03
2019-05-23T10:06:46.148Z,12.07
2019-05-23T10:09:14.869Z,14.20
2019-05-23T10:11:44.838Z,11.78
2019-05-23T10:14:20.284Z,14.73
2019-05-23T10:16:49.868Z,17.12
2019-05-23T10:19:19.946Z,13.70
2019-05-23T10:21:49.521Z,13.90
2019-05-23T10:24:19.551Z,14.68
2019-05-23T10:26:49.059Z,11.78
2019-05-23T10:29:18.894Z,10.95
2019-05-23T10:31:48.792Z,12.28
2019-05-23T10:34:19.350Z,11.63
2019-05-23T10:36:49.175Z,12.88
2019-05-23T10:39:19.576Z,12.05
2019-05-23T10:41:50.320Z,12.73
2019-05-23T10:44:19.913Z,14.78
2019-05-23T10:46:49.403Z,15.98
2019-05-23T10:49:19.134Z,11.50
2019-05-23T10:51:49.025Z,11.80
2019-05-23T10:54:19.014Z,13.32
2019-05-23T10:56:48.514Z,14.33
2019-05-23T10:59:18.156Z,10.85
2019-05-23T11:01:48.500Z,10.75
2019-05-23T11:04:18.002Z,12.65
2019-05-23T11:06:47.710Z,8.98
2019-05-23T11:09:17.564Z,11.03
2019-05-23T11:11:47.567Z,13.03
2019-05-23T11:14:17.345Z,11.10
2019-05-23T11:16:47.362Z,12.43
2019-05-23T11:19:17.269Z,10.18
2019-05-23T11:21:47.541Z,11.33
2019-05-23T11:24:17.873Z,11.60
2019-05-23T11:26:48.060Z,11.78
2019-05-23T11:29:17.578Z,10.90
2019-05-23T11:31:47.442Z,10.53
2019-05-23T11:34:17.419Z,13.18
2019-05-23T11:36:46.977Z,9.78
2019-05-23T11:39:18.162Z,9.93
2019-05-23T11:41:48.088Z,9.75
2019-05-23T11:44:17.991Z,13.55
2019-05-23T11:46:47.883Z,9.33
2019-05-23T11:49:18.015Z,7.25
2019-05-23T11:51:47.585Z,8.45
2019-05-23T11:54:18.504Z,9.53
2019-05-23T11:56:49.471Z,8.70
2019-05-23T11:59:19.428Z,7.83
2019-05-23T12:02:00.141Z,7.03
2019-05-23T12:04:37.010Z,8.85
2019-05-23T12:07:20.405Z,7.75
2019-05-23T12:09:49.981Z,8.25
2019-05-23T12:12:20.429Z,8.05
2019-05-23T12:14:50.853Z,9.48
2019-05-23T12:17:21.303Z,7.67
2019-05-23T12:19:50.932Z,12.45
2019-05-23T12:22:21.534Z,6.05
2019-05-23T12:24:51.598Z,9.45
2019-05-23T12:27:21.389Z,6.37
2019-05-23T12:29:51.041Z,5.95
2019-05-23T12:32:21.126Z,6.20
2019-05-23T12:35:08.468Z,5.08
2019-05-23T12:37:22.618Z,6.00
2019-05-23T12:39:52.945Z,3.70
2019-05-23T12:42:22.846Z,6.37
2019-05-23T12:44:52.489Z,6.65
2019-05-23T12:47:32.836Z,3.67
2019-05-23T12:50:07.539Z,3.83
2019-05-23T12:52:37.048Z,3.87
2019-05-23T12:55:06.629Z,5.58
2019-05-23T12:57:36.325Z,4.75
2019-05-23T13:00:07.865Z,4.85
2019-05-23T13:02:37.772Z,5.45
2019-05-23T13:05:09.045Z,5.53
2019-05-23T13:07:38.904Z,4.15
2019-05-23T13:10:08.963Z,4.67
2019-05-23T13:12:38.518Z,6.78
2019-05-23T13:15:08.567Z,10.53
2019-05-23T13:17:38.057Z,4.15
2019-05-23T13:20:07.817Z,7.70
2019-05-23T13:22:37.294Z,5.05
2019-05-23T13:25:06.768Z,4.30
2019-05-23T13:27:36.336Z,4.92
2019-05-23T13:30:06.362Z,3.83
2019-05-23T13:32:36.324Z,3.15
2019-05-23T13:35:06.352Z,5.00
2019-05-23T13:37:50.432Z,5.28
2019-05-23T13:40:08.861Z,3.02
2019-05-23T13:42:38.771Z,2.62
2019-05-23T13:45:08.749Z,3.17
2019-05-23T13:47:38.701Z,4.50
2019-05-23T13:50:09.025Z,4.00
2019-05-23T13:52:38.582Z,3.30
2019-05-23T13:55:08.421Z,3.62
2019-05-23T13:57:38.137Z,4.28
2019-05-23T14:00:07.989Z,2.50
2019-05-23T14:02:37.827Z,2.83
2019-05-23T14:05:08.957Z,4.37
2019-05-23T14:07:38.966Z,4.08
2019-05-23T14:10:09.205Z,2.52
2019-05-23T14:12:39.457Z,4.87
2019-05-23T14:15:10.457Z,3.50
2019-05-23T14:17:41.723Z,3.95
2019-05-23T14:20:11.572Z,8.90
2019-05-23T14:22:45.892Z,4.50
2019-05-23T14:25:16.217Z,4.92
2019-05-23T14:27:51.664Z,2.52
2019-05-23T14:30:39.583Z,3.60
2019-05-23T14:33:20.884Z,3.15
2019-05-23T14:35:52.371Z,4.22
2019-05-23T14:38:30.833Z,5.65
2019-05-23T14:40:54.854Z,5.00
2019-05-23T14:43:25.712Z,5.97
2019-05-23T14:46:01.065Z,3.60
2019-05-23T14:48:54.511Z,3.00
2019-05-23T14:51:55.390Z,3.58
2019-05-23T14:54:38.345Z,3.98
2019-05-23T14:57:08.795Z,4.95
2019-05-23T14:59:38.707Z,5.25
2019-05-23T15:02:15.166Z,7.22
2019-05-23T15:04:45.087Z,5.45
2019-05-23T15:07:15.082Z,3.17
2019-05-23T15:09:44.566Z,6.25
2019-05-23T15:12:14.580Z,3.40
2019-05-23T15:14:44.534Z,4.55
2019-05-23T15:17:14.274Z,3.98
2019-05-23T15:19:45.250Z,3.37
2019-05-23T15:22:16.058Z,3.52
2019-05-23T15:24:45.641Z,2.70
2019-05-23T15:27:15.565Z,2.80
2019-05-23T15:29:45.109Z,4.50
2019-05-23T15:32:14.942Z,5.42
2019-05-23T15:34:44.519Z,3.40
2019-05-23T15:37:14.441Z,2.30
2019-05-23T15:39:44.335Z,5.70
2019-05-23T15:42:14.211Z,3.02
2019-05-23T15:44:43.730Z,3.80
2019-05-23T15:47:13.366Z,2.30
2019-05-23T15:49:44.872Z,3.30
2019-05-23T15:52:27.088Z,3.22
2019-05-23T15:55:01.580Z,3.92
2019-05-23T15:57:46.325Z,5.50
2019-05-23T16:00:38.242Z,4.28
2019-05-23T16:03:17.411Z,3.27
2019-05-23T16:05:47.251Z,6.70
2019-05-23T16:08:17.071Z,3.98
2019-05-23T16:10:46.625Z,2.87
2019-05-23T16:13:16.854Z,5.12
2019-05-23T16:15:46.710Z,2.22
2019-05-23T16:18:16.613Z,3.40
2019-05-23T16:20:46.536Z,6.65
2019-05-23T16:23:16.098Z,3.92
2019-05-23T16:25:45.948Z,5.62
2019-05-23T16:28:15.520Z,3.02
2019-05-23T16:30:45.875Z,2.42
2019-05-23T16:33:15.802Z,2.83
2019-05-23T16:35:45.672Z,2.35
2019-05-23T16:38:15.523Z,2.17
2019-05-23T16:40:45.809Z,4.47
2019-05-23T16:43:15.554Z,4.35
2019-05-23T16:45:45.131Z,2.70
2019-05-23T16:48:14.761Z,2.10
2019-05-23T16:50:44.285Z,3.87
2019-05-23T16:53:13.870Z,3.62
2019-05-23T16:55:50.124Z,2.77
2019-05-23T16:58:28.050Z,2.65
2019-05-23T17:01:23.478Z,2.52
2019-05-23T17:03:58.885Z,4.90
2019-05-23T17:06:47.608Z,8.83
2019-05-23T17:09:35.767Z,5.47
2019-05-23T17:12:27.563Z,5.60
2019-05-23T17:15:02.257Z,2.25
2019-05-23T17:18:02.197Z,3.72
2019-05-23T17:20:50.466Z,4.00
2019-05-23T17:23:35.065Z,3.25
2019-05-23T17:26:16.752Z,1.60
2019-05-23T17:28:49.336Z,1.95
2019-05-23T17:31:20.259Z,2.02
2019-05-23T17:33:50.648Z,1.35
2019-05-23T17:36:22.132Z,4.85
2019-05-23T17:38:52.525Z,4.12
2019-05-23T17:41:22.889Z,3.42
2019-05-23T17:43:52.774Z,4.80
2019-05-23T17:46:22.457Z,2.30
2019-05-23T17:48:52.898Z,6.05
2019-05-23T17:51:22.741Z,2.75
2019-05-23T17:53:52.695Z,5.65
2019-05-23T17:56:22.508Z,3.22
2019-05-23T17:58:52.915Z,4.53
2019-05-23T18:01:24.075Z,4.00
2019-05-23T18:03:54.105Z,3.00
2019-05-23T18:06:24.011Z,3.85
2019-05-23T18:08:53.724Z,2.47
2019-05-23T18:11:23.482Z,3.77
2019-05-23T18:13:54.407Z,5.05
2019-05-23T18:16:24.737Z,3.87
2019-05-23T18:18:54.273Z,3.60
2019-05-23T18:21:23.950Z,5.22
2019-05-23T18:23:54.263Z,4.15
2019-05-23T18:26:23.809Z,4.62
2019-05-23T18:28:54.014Z,3.05
2019-05-23T18:31:26.945Z,3.27
2019-05-23T18:33:57.800Z,4.05
2019-05-23T18:36:27.384Z,4.95
2019-05-23T18:38:56.933Z,6.05
2019-05-23T18:41:27.387Z,7.50
2019-05-23T18:43:57.715Z,5.12
2019-05-23T18:46:37.189Z,3.42
2019-05-23T18:49:05.701Z,3.87
2019-05-23T18:51:35.269Z,3.75
2019-05-23T18:54:06.789Z,4.45
2019-05-23T18:56:36.361Z,5.10
2019-05-23T18:59:09.460Z,5.40
2019-05-23T19:01:39.995Z,6.55
2019-05-23T19:04:11.125Z,2.83
2019-05-23T19:06:42.099Z,2.77
2019-05-23T19:09:14.096Z,2.40
2019-05-23T19:11:43.982Z,2.60
2019-05-23T19:14:14.034Z,2.45
2019-05-23T19:16:45.290Z,4.12
2019-05-23T19:19:15.879Z,2.42
2019-05-23T19:21:46.275Z,4.70
2019-05-23T19:24:15.836Z,3.10
2019-05-23T19:26:45.936Z,5.22
2019-05-23T19:29:17.657Z,2.60
2019-05-23T19:31:47.546Z,2.42
2019-05-23T19:34:17.395Z,5.87
2019-05-23T19:36:46.872Z,4.28
2019-05-23T19:39:17.119Z,7.72
2019-05-23T19:41:46.665Z,6.37
2019-05-23T19:44:16.606Z,5.20
2019-05-23T19:46:46.255Z,8.23
2019-05-23T19:49:16.215Z,5.87
2019-05-23T19:51:45.749Z,5.00
2019-05-23T19:54:15.932Z,6.97
2019-05-23T19:56:46.948Z,4.75
2019-05-23T19:59:20.755Z,5.42
2019-05-23T20:02:08.696Z,6.65
2019-05-23T20:04:40.733Z,7.12
2019-05-23T20:07:10.688Z,4.97
2019-05-23T20:09:41.771Z,7.10
2019-05-23T20:12:13.096Z,4.60
2019-05-23T20:14:42.766Z,3.47
2019-05-23T20:17:12.958Z,3.87
2019-05-23T20:19:42.520Z,4.33
2019-05-23T20:22:12.754Z,5.15
2019-05-23T20:24:42.330Z,3.85
2019-05-23T20:27:11.871Z,5.15
2019-05-23T20:29:41.493Z,4.62
2019-05-23T20:32:14.800Z,4.28
2019-05-23T20:34:44.362Z,4.60
2019-05-23T20:37:13.817Z,4.58
2019-05-23T20:39:43.451Z,5.65
2019-05-23T20:42:13.461Z,4.87
2019-05-23T20:44:43.316Z,5.40
2019-05-23T20:47:13.490Z,3.87
2019-05-23T20:49:42.988Z,5.05
2019-05-23T20:52:12.440Z,5.97
2019-05-23T20:54:42.258Z,8.13
2019-05-23T20:57:12.685Z,6.20
2019-05-23T20:59:42.731Z,4.35
2019-05-23T21:02:12.380Z,7.17
2019-05-23T21:04:42.277Z,4.42
2019-05-23T21:07:12.242Z,4.40
2019-05-23T21:09:41.738Z,6.12
2019-05-23T21:12:28.409Z,4.55
2019-05-23T21:14:43.032Z,4.55
2019-05-23T21:17:12.600Z,5.70
2019-05-23T21:19:42.181Z,4.85
2019-05-23T21:22:11.743Z,4.53
2019-05-23T21:24:41.313Z,4.40
2019-05-23T21:27:10.770Z,4.37
2019-05-23T21:29:40.945Z,4.28
2019-05-23T21:32:10.862Z,7.15
2019-05-23T21:34:40.808Z,4.87
2019-05-23T21:37:10.662Z,6.47
2019-05-23T21:39:40.380Z,6.45
2019-05-23T21:42:09.934Z,7.58
2019-05-23T21:44:39.452Z,5.00
2019-05-23T21:47:09.786Z,5.05
2019-05-23T21:49:39.605Z,4.40
2019-05-23T21:52:09.362Z,4.67
2019-05-23T21:54:39.009Z,6.87
2019-05-23T21:57:08.634Z,5.30
2019-05-23T21:59:38.093Z,5.50
2019-05-23T22:02:18.438Z,4.80
2019-05-23T22:04:56.637Z,4.47
2019-05-23T22:07:26.877Z,5.07
2019-05-23T22:09:56.355Z,4.93
2019-05-23T22:12:25.895Z,4.83
2019-05-23T22:14:55.650Z,6.28
2019-05-23T22:17:26.850Z,5.43
2019-05-23T22:19:56.383Z,7.53
2019-05-23T22:22:26.913Z,6.73
2019-05-23T22:24:56.889Z,4.47
2019-05-23T22:27:27.067Z,5.10
2019-05-23T22:29:56.571Z,6.17
2019-05-23T22:32:26.676Z,6.53
2019-05-23T22:35:03.375Z,5.17
2019-05-23T22:37:32.979Z,4.90
2019-05-23T22:40:03.856Z,5.93
2019-05-23T22:42:34.679Z,6.00
2019-05-23T22:45:06.585Z,6.57
2019-05-23T22:47:36.390Z,4.23
2019-05-23T22:50:06.541Z,5.70
2019-05-23T22:52:36.124Z,5.23
2019-05-23T22:55:05.713Z,5.80
2019-05-23T22:57:35.238Z,6.30
2019-05-23T23:00:05.076Z,5.60
2019-05-23T23:02:35.838Z,7.23
2019-05-23T23:05:06.563Z,7.73
2019-05-23T23:07:36.423Z,6.73
2019-05-23T23:10:06.596Z,7.03
2019-05-23T23:12:36.354Z,4.30
2019-05-23T23:15:06.486Z,4.30
2019-05-23T23:17:36.417Z,5.40
2019-05-23T23:20:06.446Z,4.80
2019-05-23T23:22:36.578Z,4.20
2019-05-23T23:25:06.282Z,5.30
2019-05-23T23:27:35.873Z,4.80
2019-05-23T23:30:05.542Z,6.73
2019-05-23T23:32:35.188Z,5.33
2019-05-23T23:35:04.988Z,5.80
2019-05-23T23:37:34.547Z,4.87
2019-05-23T23:40:05.225Z,7.03
2019-05-23T23:42:34.759Z,4.60
2019-05-23T23:45:22.445Z,6.50
2019-05-23T23:48:10.023Z,5.13
2019-05-23T23:50:57.736Z,4.77
2019-05-23T23:53:45.589Z,4.70
2019-05-23T23:56:33.036Z,5.43
2019-05-23T23:59:02.882Z,5.77
